createdAt,value
2023-01-13T00:00:09.221Z,8.49
2023-01-13T00:03:15.919Z,8.49
2023-01-13T00:06:02.378Z,8.49
2023-01-13T00:08:50.155Z,8.50
2023-01-13T00:11:36.939Z,8.52
2023-01-13T00:14:23.746Z,8.51
2023-01-13T00:17:10.400Z,8.53
2023-01-13T00:19:57.065Z,8.54
2023-01-13T00:22:43.636Z,8.57
2023-01-13T00:25:29.806Z,8.59
2023-01-13T00:28:15.977Z,8.60
2023-01-13T00:31:10.328Z,8.61
2023-01-13T00:33:58.191Z,8.61
2023-01-13T00:36:45.055Z,8.62
2023-01-13T00:39:31.486Z,8.63
2023-01-13T00:42:37.757Z,8.64
2023-01-13T00:45:24.264Z,8.65
2023-01-13T00:48:10.865Z,8.65
2023-01-13T00:51:02.869Z,8.63
2023-01-13T00:53:51.687Z,8.60
2023-01-13T00:56:40.501Z,8.55
2023-01-13T00:59:27.286Z,8.51
2023-01-13T01:02:13.763Z,8.50
2023-01-13T01:05:01.068Z,8.50
2023-01-13T01:07:47.170Z,8.49
2023-01-13T01:10:33.373Z,8.47
2023-01-13T01:13:20.018Z,8.45
2023-01-13T01:16:09.595Z,8.44
2023-01-13T01:18:56.778Z,8.42
2023-01-13T01:21:43.436Z,8.40
2023-01-13T01:24:29.990Z,8.38
2023-01-13T01:27:16.600Z,8.38
2023-01-13T01:30:02.743Z,8.39
2023-01-13T01:32:48.964Z,8.37
2023-01-13T01:35:39.731Z,8.39
2023-01-13T01:38:26.041Z,8.39
2023-01-13T01:41:15.587Z,8.37
2023-01-13T01:44:10.364Z,8.36
2023-01-13T01:46:56.958Z,8.35
2023-01-13T01:49:44.938Z,8.31
2023-01-13T01:52:35.943Z,8.29
2023-01-13T01:55:23.320Z,8.28
2023-01-13T01:58:13.602Z,8.27
2023-01-13T02:01:00.214Z,8.28
2023-01-13T02:03:52.845Z,8.30
2023-01-13T02:06:39.503Z,8.30
2023-01-13T02:09:26.993Z,8.31
2023-01-13T02:12:32.036Z,8.35
2023-01-13T02:15:22.223Z,8.36
2023-01-13T02:18:33.203Z,8.39
2023-01-13T02:21:47.596Z,8.40
2023-01-13T02:25:00.134Z,8.42
2023-01-13T02:27:52.735Z,8.44
2023-01-13T02:31:08.440Z,8.42
2023-01-13T02:34:07.757Z,8.42
2023-01-13T02:37:02.508Z,8.42
2023-01-13T02:39:55.883Z,8.41
2023-01-13T02:43:35.699Z,8.42
2023-01-13T02:46:27.906Z,8.44
2023-01-13T02:49:45.463Z,8.43
2023-01-13T02:52:36.432Z,8.45
2023-01-13T02:55:27.068Z,8.45
2023-01-13T02:58:16.989Z,8.45
2023-01-13T03:01:03.675Z,8.46
2023-01-13T03:03:50.218Z,8.48
2023-01-13T03:06:42.460Z,8.47
2023-01-13T03:09:39.858Z,8.43
2023-01-13T03:12:35.208Z,8.37
2023-01-13T03:15:37.034Z,8.30
2023-01-13T03:18:35.607Z,8.23
2023-01-13T03:21:28.593Z,8.21
2023-01-13T03:24:21.342Z,8.18
2023-01-13T03:27:14.659Z,8.18
2023-01-13T03:30:03.766Z,8.18
2023-01-13T03:32:53.922Z,8.19
2023-01-13T03:35:42.598Z,8.23
2023-01-13T03:38:35.128Z,8.23
2023-01-13T03:41:37.087Z,8.24
2023-01-13T03:44:32.934Z,8.28
2023-01-13T03:47:22.578Z,8.31
2023-01-13T03:50:18.773Z,8.33
2023-01-13T03:53:10.856Z,8.35
2023-01-13T03:56:10.020Z,8.38
2023-01-13T03:58:57.818Z,8.38
2023-01-13T04:01:49.022Z,8.40
2023-01-13T04:04:52.320Z,8.37
2023-01-13T04:08:03.634Z,8.34
2023-01-13T04:11:02.157Z,8.32
2023-01-13T04:13:49.075Z,8.32
2023-01-13T04:16:37.807Z,8.34
2023-01-13T04:19:23.966Z,8.36
2023-01-13T04:22:10.347Z,8.36
2023-01-13T04:24:57.067Z,8.37
2023-01-13T04:27:43.104Z,8.37
2023-01-13T04:30:29.400Z,8.39
2023-01-13T04:33:17.042Z,8.41
2023-01-13T04:36:03.316Z,8.42
2023-01-13T04:38:50.659Z,8.44
2023-01-13T04:41:55.475Z,8.44
2023-01-13T04:44:41.834Z,8.43
2023-01-13T04:47:28.393Z,8.40
2023-01-13T04:50:15.099Z,8.36
2023-01-13T04:53:01.815Z,8.35
2023-01-13T04:55:49.689Z,8.32
2023-01-13T04:58:35.714Z,8.28
2023-01-13T05:01:22.287Z,8.26
2023-01-13T05:04:11.304Z,8.27
2023-01-13T05:06:58.792Z,8.27
2023-01-13T05:09:45.427Z,8.29
2023-01-13T05:12:50.291Z,8.31
2023-01-13T05:15:55.089Z,8.32
2023-01-13T05:18:41.392Z,8.31
2023-01-13T05:21:46.296Z,8.31
2023-01-13T05:24:51.307Z,8.31
2023-01-13T05:27:37.634Z,8.32
2023-01-13T05:30:26.533Z,8.32
2023-01-13T05:33:15.441Z,8.33
2023-01-13T05:36:02.881Z,8.35
2023-01-13T05:38:51.506Z,8.38
2023-01-13T05:41:55.939Z,8.40
2023-01-13T05:44:42.084Z,8.42
2023-01-13T05:47:28.617Z,8.44
2023-01-13T05:50:16.089Z,8.45
2023-01-13T05:53:02.739Z,8.45
2023-01-13T05:55:49.469Z,8.45
2023-01-13T05:58:35.741Z,8.45
2023-01-13T06:01:21.914Z,8.45
2023-01-13T06:04:08.061Z,8.47
2023-01-13T06:06:56.004Z,8.46
2023-01-13T06:09:42.377Z,8.47
2023-01-13T06:12:28.883Z,8.47
2023-01-13T06:15:15.087Z,8.50
2023-01-13T06:18:03.102Z,8.50
2023-01-13T06:20:49.597Z,8.54
2023-01-13T06:23:38.627Z,8.57
2023-01-13T06:26:25.195Z,8.59
2023-01-13T06:29:14.951Z,8.62
2023-01-13T06:32:07.371Z,8.62
2023-01-13T06:34:59.961Z,8.63
2023-01-13T06:37:50.718Z,8.63
2023-01-13T06:40:37.446Z,8.66
2023-01-13T06:43:23.970Z,8.69
2023-01-13T06:46:10.601Z,8.72
2023-01-13T06:48:56.917Z,8.72
2023-01-13T06:51:43.081Z,8.75
2023-01-13T06:54:29.672Z,8.77
2023-01-13T06:57:16.190Z,8.77
2023-01-13T07:00:02.455Z,8.74
2023-01-13T07:02:49.122Z,8.72
2023-01-13T07:05:35.628Z,8.71
2023-01-13T07:08:23.310Z,8.69
2023-01-13T07:11:09.607Z,8.67
2023-01-13T07:14:14.390Z,8.68
2023-01-13T07:17:01.068Z,8.69
2023-01-13T07:19:47.162Z,8.68
2023-01-13T07:22:33.236Z,8.68
2023-01-13T07:25:19.639Z,8.67
2023-01-13T07:28:06.108Z,8.67
2023-01-13T07:30:52.844Z,8.66
2023-01-13T07:33:39.302Z,8.67
2023-01-13T07:36:25.698Z,8.65
2023-01-13T07:39:12.275Z,8.66
2023-01-13T07:42:17.019Z,8.66
2023-01-13T07:45:03.863Z,8.67
2023-01-13T07:47:52.575Z,8.68
2023-01-13T07:50:39.221Z,8.69
2023-01-13T07:53:26.040Z,8.74
2023-01-13T07:56:12.217Z,8.76
2023-01-13T07:59:01.281Z,8.78
2023-01-13T08:01:47.549Z,8.80
2023-01-13T08:04:34.172Z,8.82
2023-01-13T08:07:20.405Z,8.84
2023-01-13T08:10:07.568Z,8.87
2023-01-13T08:13:12.593Z,8.90
2023-01-13T08:16:01.610Z,8.99
2023-01-13T08:18:47.935Z,9.03
2023-01-13T08:21:34.337Z,9.06
2023-01-13T08:24:20.957Z,9.06
2023-01-13T08:27:07.310Z,9.06
2023-01-13T08:29:53.719Z,9.08
2023-01-13T08:32:40.318Z,9.07
2023-01-13T08:35:26.675Z,9.05
2023-01-13T08:38:12.658Z,9.03
2023-01-13T08:40:59.328Z,9.04
2023-01-13T08:43:45.407Z,9.05
2023-01-13T08:46:31.783Z,9.05
2023-01-13T08:49:18.698Z,9.03
2023-01-13T08:52:05.647Z,9.06
2023-01-13T08:54:52.105Z,9.09
2023-01-13T08:57:38.798Z,9.11
2023-01-13T09:00:25.164Z,9.12
2023-01-13T09:03:11.324Z,9.13
2023-01-13T09:05:57.665Z,9.13
2023-01-13T09:08:44.494Z,9.11
2023-01-13T09:11:54.457Z,9.10
2023-01-13T09:14:40.580Z,9.10
2023-01-13T09:17:27.551Z,9.13
2023-01-13T09:20:14.090Z,9.17
2023-01-13T09:23:00.567Z,9.22
2023-01-13T09:25:47.141Z,9.25
2023-01-13T09:28:33.563Z,9.26
2023-01-13T09:31:20.293Z,9.31
2023-01-13T09:34:25.953Z,9.36
2023-01-13T09:37:12.290Z,9.44
2023-01-13T09:39:58.669Z,9.50
2023-01-13T09:43:13.925Z,9.56
2023-01-13T09:46:05.589Z,9.58
2023-01-13T09:48:57.270Z,9.61
2023-01-13T09:51:49.375Z,9.65
2023-01-13T09:54:43.416Z,9.69
2023-01-13T09:57:33.908Z,9.74
2023-01-13T10:00:26.504Z,9.79
2023-01-13T10:03:25.744Z,9.87
2023-01-13T10:06:24.737Z,9.94
2023-01-13T10:09:19.761Z,9.96
2023-01-13T10:12:32.971Z,10.02
2023-01-13T10:15:20.531Z,10.09
2023-01-13T10:18:19.288Z,10.11
2023-01-13T10:21:27.130Z,10.16
2023-01-13T10:24:33.050Z,10.23
2023-01-13T10:27:28.048Z,10.31
2023-01-13T10:30:17.470Z,10.35
2023-01-13T10:33:10.074Z,10.39
2023-01-13T10:36:02.496Z,10.43
2023-01-13T10:38:50.580Z,10.49
2023-01-13T10:41:36.976Z,10.54
2023-01-13T10:44:23.228Z,10.58
2023-01-13T10:47:20.525Z,10.59
2023-01-13T10:50:12.460Z,10.56
2023-01-13T10:53:15.178Z,10.55
2023-01-13T10:56:03.702Z,10.54
2023-01-13T10:58:50.514Z,10.55
2023-01-13T11:01:38.012Z,10.55
2023-01-13T11:04:32.159Z,10.53
2023-01-13T11:07:36.662Z,10.52
2023-01-13T11:10:28.360Z,10.51
2023-01-13T11:13:23.704Z,10.53
2023-01-13T11:16:14.754Z,10.52
2023-01-13T11:19:14.170Z,10.51
2023-01-13T11:22:16.163Z,10.55
2023-01-13T11:25:04.183Z,10.66
2023-01-13T11:27:56.347Z,10.77
2023-01-13T11:30:53.223Z,10.82
2023-01-13T11:33:51.681Z,10.82
2023-01-13T11:36:40.746Z,10.85
2023-01-13T11:39:56.283Z,10.87
2023-01-13T11:42:54.186Z,10.85
2023-01-13T11:45:51.043Z,10.92
2023-01-13T11:48:41.535Z,10.88
2023-01-13T11:51:27.765Z,10.84
2023-01-13T11:54:59.134Z,10.83
2023-01-13T11:58:23.592Z,10.84
2023-01-13T12:01:25.158Z,10.84
2023-01-13T12:04:44.805Z,10.83
2023-01-13T12:07:36.655Z,10.79
2023-01-13T12:10:49.369Z,10.78
2023-01-13T12:14:24.965Z,10.78
2023-01-13T12:17:23.458Z,10.83
2023-01-13T12:20:22.872Z,10.88
2023-01-13T12:23:36.133Z,10.88
2023-01-13T12:26:22.371Z,10.88
2023-01-13T12:29:19.676Z,10.89
2023-01-13T12:32:10.585Z,10.91
2023-01-13T12:35:05.192Z,11.01
2023-01-13T12:38:00.005Z,11.16
2023-01-13T12:40:52.609Z,11.39
2023-01-13T12:44:03.818Z,11.62
2023-01-13T12:46:56.204Z,11.70
2023-01-13T12:49:45.909Z,11.79
2023-01-13T12:52:44.057Z,11.80
2023-01-13T12:55:34.641Z,11.79
2023-01-13T12:58:28.698Z,11.73
2023-01-13T13:01:15.414Z,11.68
2023-01-13T13:04:11.295Z,11.64
2023-01-13T13:07:12.438Z,11.60
2023-01-13T13:10:02.456Z,11.54
2023-01-13T13:13:11.342Z,11.45
2023-01-13T13:16:26.794Z,11.33
2023-01-13T13:19:20.048Z,11.23
2023-01-13T13:22:11.903Z,11.10
2023-01-13T13:25:03.934Z,11.03
2023-01-13T13:28:00.410Z,10.94
2023-01-13T13:30:53.089Z,10.92
2023-01-13T13:33:52.841Z,10.91
2023-01-13T13:37:11.474Z,10.86
2023-01-13T13:40:16.146Z,10.81
2023-01-13T13:43:22.013Z,10.79
2023-01-13T13:46:46.877Z,10.77
2023-01-13T13:49:41.914Z,10.71
2023-01-13T13:52:42.938Z,10.67
2023-01-13T13:55:29.948Z,10.67
2023-01-13T13:58:17.625Z,10.64
2023-01-13T14:01:04.246Z,10.61
2023-01-13T14:04:04.168Z,10.57
2023-01-13T14:06:51.495Z,10.47
2023-01-13T14:09:44.743Z,10.38
2023-01-13T14:12:38.026Z,10.28
2023-01-13T14:15:34.274Z,10.11
2023-01-13T14:18:21.696Z,9.97
2023-01-13T14:21:26.840Z,9.83
2023-01-13T14:24:17.548Z,9.66
2023-01-13T14:27:14.141Z,9.57
2023-01-13T14:30:00.932Z,9.43
2023-01-13T14:32:47.274Z,9.34
2023-01-13T14:35:33.463Z,9.26
2023-01-13T14:38:20.177Z,9.21
2023-01-13T14:41:17.144Z,9.13
2023-01-13T14:44:14.358Z,9.05
2023-01-13T14:47:16.328Z,8.99
2023-01-13T14:50:11.809Z,8.95
2023-01-13T14:53:00.749Z,8.92
2023-01-13T14:55:47.157Z,8.91
2023-01-13T14:58:33.759Z,8.90
2023-01-13T15:01:36.591Z,8.87
2023-01-13T15:04:34.024Z,8.85
2023-01-13T15:07:25.578Z,8.83
2023-01-13T15:10:14.514Z,8.83
2023-01-13T15:13:03.969Z,8.82
2023-01-13T15:15:52.352Z,8.81
2023-01-13T15:18:40.864Z,8.79
2023-01-13T15:21:27.141Z,8.78
2023-01-13T15:24:13.670Z,8.77
2023-01-13T15:27:00.394Z,8.77
2023-01-13T15:29:47.045Z,8.77
2023-01-13T15:32:33.497Z,8.79
2023-01-13T15:35:20.662Z,8.78
2023-01-13T15:38:12.088Z,8.80
2023-01-13T15:40:58.430Z,8.81
2023-01-13T15:44:03.138Z,8.82
2023-01-13T15:46:49.816Z,8.82
2023-01-13T15:49:41.402Z,8.81
2023-01-13T15:52:28.091Z,8.79
2023-01-13T15:55:14.173Z,8.77
2023-01-13T15:58:02.169Z,8.74
2023-01-13T16:00:48.799Z,8.72
2023-01-13T16:03:34.942Z,8.69
2023-01-13T16:06:27.711Z,8.66
2023-01-13T16:09:14.496Z,8.63
2023-01-13T16:12:00.633Z,8.61
2023-01-13T16:14:47.213Z,8.59
2023-01-13T16:17:35.352Z,8.57
2023-01-13T16:20:22.255Z,8.55
2023-01-13T16:23:08.661Z,8.54
2023-01-13T16:25:54.814Z,8.51
2023-01-13T16:28:41.223Z,8.50
2023-01-13T16:31:31.848Z,8.46
2023-01-13T16:34:19.008Z,8.44
2023-01-13T16:37:09.467Z,8.40
2023-01-13T16:39:55.843Z,8.41
2023-01-13T16:42:42.520Z,8.42
2023-01-13T16:45:29.143Z,8.40
2023-01-13T16:48:19.808Z,8.37
2023-01-13T16:51:06.239Z,8.33
2023-01-13T16:53:52.489Z,8.30
2023-01-13T16:56:38.955Z,8.28
2023-01-13T16:59:25.506Z,8.25
2023-01-13T17:02:16.353Z,8.21
2023-01-13T17:05:02.915Z,8.15
2023-01-13T17:07:49.145Z,8.14
2023-01-13T17:10:35.730Z,8.12
2023-01-13T17:13:22.367Z,8.08
2023-01-13T17:16:17.180Z,8.03
2023-01-13T17:19:03.657Z,7.98
2023-01-13T17:21:51.192Z,7.94
2023-01-13T17:24:37.801Z,7.93
2023-01-13T17:27:24.132Z,7.94
2023-01-13T17:30:12.145Z,7.96
2023-01-13T17:35:27.435Z,8.01
2023-01-13T17:39:37.191Z,7.98
2023-01-13T17:42:25.143Z,7.88
2023-01-13T17:45:12.427Z,7.77
2023-01-13T17:47:59.816Z,7.71
2023-01-13T17:50:51.305Z,7.62
2023-01-13T17:53:40.967Z,7.51
2023-01-13T17:56:27.707Z,7.41
2023-01-13T17:59:16.244Z,7.36
2023-01-13T18:02:03.104Z,7.28
2023-01-13T18:04:49.669Z,7.23
2023-01-13T18:07:36.459Z,7.19
2023-01-13T18:10:23.364Z,7.20
2023-01-13T18:13:10.019Z,7.20
2023-01-13T18:16:11.640Z,7.19
2023-01-13T18:19:19.234Z,7.15
2023-01-13T18:22:24.873Z,7.04
2023-01-13T18:25:31.619Z,6.91
2023-01-13T18:28:18.653Z,6.77
2023-01-13T18:31:05.407Z,6.68
2023-01-13T18:33:52.900Z,6.61
2023-01-13T18:36:39.208Z,6.57
2023-01-13T18:39:25.822Z,6.55
2023-01-13T18:42:31.266Z,6.51
2023-01-13T18:45:20.401Z,6.49
2023-01-13T18:48:06.963Z,6.45
2023-01-13T18:50:53.777Z,6.44
2023-01-13T18:53:40.753Z,6.41
2023-01-13T18:56:27.460Z,6.37
2023-01-13T18:59:14.455Z,6.36
2023-01-13T19:02:02.139Z,6.35
2023-01-13T19:04:49.224Z,6.30
2023-01-13T19:07:36.505Z,6.25
2023-01-13T19:10:23.838Z,6.21
2023-01-13T19:13:10.381Z,6.18
2023-01-13T19:15:56.903Z,6.16
2023-01-13T19:18:44.006Z,6.11
2023-01-13T19:21:30.807Z,6.05
2023-01-13T19:24:17.417Z,6.02
2023-01-13T19:27:04.225Z,6.03
2023-01-13T19:29:52.763Z,6.06
2023-01-13T19:32:39.735Z,6.07
2023-01-13T19:35:26.243Z,6.08
2023-01-13T19:38:12.950Z,6.09
2023-01-13T19:41:03.536Z,6.10
2023-01-13T19:44:08.853Z,6.10
2023-01-13T19:46:57.001Z,6.10
2023-01-13T19:49:43.981Z,6.08
2023-01-13T19:52:30.973Z,6.07
2023-01-13T19:55:19.820Z,6.02
2023-01-13T19:58:08.265Z,5.96
2023-01-13T20:00:55.688Z,5.89
2023-01-13T20:03:44.195Z,5.85
2023-01-13T20:06:32.640Z,5.84
2023-01-13T20:09:19.149Z,5.81
2023-01-13T20:12:12.572Z,5.78
2023-01-13T20:14:58.686Z,5.77
2023-01-13T20:17:45.495Z,5.77
2023-01-13T20:20:31.955Z,5.79
2023-01-13T20:23:18.447Z,5.79
2023-01-13T20:26:07.743Z,5.79
2023-01-13T20:28:53.860Z,5.79
2023-01-13T20:31:40.653Z,5.80
2023-01-13T20:34:27.867Z,5.81
2023-01-13T20:37:14.370Z,5.81
2023-01-13T20:40:01.891Z,5.79
2023-01-13T20:42:48.521Z,5.76
2023-01-13T20:45:35.240Z,5.74
2023-01-13T20:48:21.471Z,5.71
2023-01-13T20:51:07.845Z,5.70
2023-01-13T20:53:57.121Z,5.70
2023-01-13T20:56:44.176Z,5.72
2023-01-13T20:59:31.413Z,5.69
2023-01-13T21:02:18.010Z,5.74
2023-01-13T21:05:04.570Z,5.78
2023-01-13T21:07:51.155Z,5.80
2023-01-13T21:10:37.631Z,5.88
2023-01-13T21:13:42.922Z,5.95
2023-01-13T21:16:29.284Z,5.96
2023-01-13T21:19:15.942Z,5.96
2023-01-13T21:22:04.011Z,5.96
2023-01-13T21:24:50.708Z,5.94
2023-01-13T21:27:37.474Z,5.89
2023-01-13T21:30:23.762Z,5.87
2023-01-13T21:33:13.810Z,5.81
2023-01-13T21:36:07.365Z,5.74
2023-01-13T21:38:58.888Z,5.68
2023-01-13T21:42:04.122Z,5.65
2023-01-13T21:45:08.656Z,5.59
2023-01-13T21:47:56.013Z,5.51
2023-01-13T21:50:42.368Z,5.45
2023-01-13T21:53:28.972Z,5.41
2023-01-13T21:56:15.692Z,5.40
2023-01-13T21:59:02.295Z,5.38
2023-01-13T22:02:23.199Z,5.31
2023-01-13T22:04:55.278Z,5.21
2023-01-13T22:07:41.593Z,5.11
2023-01-13T22:10:30.141Z,5.03
2023-01-13T22:13:34.637Z,4.96
2023-01-13T22:16:21.017Z,4.88
2023-01-13T22:19:08.614Z,4.83
2023-01-13T22:21:55.429Z,4.83
2023-01-13T22:24:43.535Z,4.85
2023-01-13T22:27:30.844Z,4.86
2023-01-13T22:30:21.752Z,4.86
2023-01-13T22:33:08.273Z,4.86
2023-01-13T22:35:55.635Z,4.85
2023-01-13T22:38:41.823Z,4.80
2023-01-13T22:41:27.991Z,4.75
2023-01-13T22:44:14.010Z,4.70
2023-01-13T22:47:00.536Z,4.64
2023-01-13T22:49:49.599Z,4.58
2023-01-13T22:52:35.947Z,4.54
2023-01-13T22:55:22.478Z,4.50
2023-01-13T22:58:09.206Z,4.47
2023-01-13T23:00:56.056Z,4.44
2023-01-13T23:03:45.460Z,4.39
2023-01-13T23:06:33.404Z,4.34
2023-01-13T23:09:20.212Z,4.27
2023-01-13T23:12:06.747Z,4.22
2023-01-13T23:14:53.523Z,4.19
2023-01-13T23:17:40.159Z,4.16
2023-01-13T23:20:26.519Z,4.16
2023-01-13T23:23:12.583Z,4.12
2023-01-13T23:25:58.963Z,4.11
2023-01-13T23:28:45.742Z,4.11
2023-01-13T23:31:32.857Z,4.11
2023-01-13T23:34:19.229Z,4.10
2023-01-13T23:37:05.589Z,4.09
2023-01-13T23:39:52.058Z,4.06
2023-01-13T23:42:38.461Z,4.01
2023-01-13T23:45:25.062Z,3.97
2023-01-13T23:48:11.198Z,3.96
2023-01-13T23:51:02.719Z,3.93
2023-01-13T23:53:50.591Z,3.90
2023-01-13T23:56:39.628Z,3.90
2023-01-13T23:59:26.451Z,3.87
